createdAt,value
2022-11-29T00:04:11.765Z,9.87
2022-11-29T00:09:07.021Z,9.33
2022-11-29T00:13:58.590Z,10.33
2022-11-29T00:18:50.196Z,8.77
2022-11-29T00:23:41.778Z,8.33
2022-11-29T00:28:35.368Z,7.37
2022-11-29T00:33:28.004Z,7.97
2022-11-29T00:38:19.613Z,8.87
2022-11-29T00:43:11.171Z,5.53
2022-11-29T00:48:02.680Z,9.67
2022-11-29T00:52:54.217Z,8.10
2022-11-29T00:57:45.836Z,7.63
2022-11-29T01:02:37.620Z,9.07
2022-11-29T01:07:29.357Z,7.20
2022-11-29T01:12:20.911Z,9.60
2022-11-29T01:17:12.521Z,8.13
2022-11-29T01:22:04.119Z,8.43
2022-11-29T01:26:55.688Z,9.73
2022-11-29T01:31:47.225Z,10.07
2022-11-29T01:36:38.755Z,10.00
2022-11-29T01:41:32.402Z,9.93
2022-11-29T01:46:24.715Z,8.27
2022-11-29T01:51:16.497Z,11.03
2022-11-29T01:56:08.230Z,10.73
2022-11-29T02:01:01.142Z,10.27
2022-11-29T02:05:53.889Z,9.53
2022-11-29T02:11:08.335Z,12.47
2022-11-29T02:16:37.860Z,11.10
2022-11-29T02:22:02.880Z,11.60
2022-11-29T02:27:23.080Z,10.50
2022-11-29T02:32:20.720Z,11.03
2022-11-29T02:37:47.748Z,10.10
2022-11-29T02:43:13.863Z,11.07
2022-11-29T02:48:26.797Z,10.33
2022-11-29T02:53:27.931Z,10.53
2022-11-29T02:58:31.601Z,10.60
2022-11-29T03:03:32.575Z,15.90
2022-11-29T03:08:35.330Z,15.13
2022-11-29T03:13:48.851Z,13.73
2022-11-29T03:19:05.065Z,15.70
2022-11-29T03:24:04.788Z,13.67
2022-11-29T03:29:07.059Z,18.40
2022-11-29T03:34:04.486Z,14.70
2022-11-29T03:39:00.313Z,19.57
2022-11-29T03:43:57.292Z,17.77
2022-11-29T03:48:55.496Z,15.33
2022-11-29T03:54:02.469Z,19.97
2022-11-29T03:59:15.317Z,18.50
2022-11-29T04:04:15.982Z,21.13
2022-11-29T04:09:19.826Z,22.13
2022-11-29T04:14:56.490Z,18.70
2022-11-29T04:20:18.975Z,21.00
2022-11-29T04:25:32.484Z,22.17
2022-11-29T04:30:36.710Z,27.20
2022-11-29T04:35:43.146Z,33.60
2022-11-29T04:40:43.858Z,28.83
2022-11-29T04:46:03.161Z,34.60
2022-11-29T04:51:33.531Z,35.07
2022-11-29T04:56:30.880Z,33.47
2022-11-29T05:01:35.574Z,35.23
2022-11-29T05:06:56.311Z,42.37
2022-11-29T05:12:01.472Z,39.03
2022-11-29T05:17:31.529Z,39.10
2022-11-29T05:22:50.052Z,39.43
2022-11-29T05:28:05.609Z,45.33
2022-11-29T05:33:24.542Z,38.90
2022-11-29T05:39:07.626Z,42.73
2022-11-29T05:44:17.087Z,40.77
2022-11-29T05:49:35.040Z,41.10
2022-11-29T05:54:32.937Z,32.43
2022-11-29T05:59:30.091Z,41.93
2022-11-29T06:04:58.704Z,35.97
2022-11-29T06:10:01.453Z,37.47
2022-11-29T06:15:12.981Z,43.07
2022-11-29T06:20:42.008Z,44.07
2022-11-29T06:25:50.709Z,44.67
2022-11-29T06:31:01.007Z,53.40
2022-11-29T06:36:00.639Z,50.47
2022-11-29T06:40:54.928Z,57.00
2022-11-29T06:45:59.442Z,53.83
2022-11-29T06:51:29.144Z,55.23
2022-11-29T06:56:56.161Z,53.23
2022-11-29T07:02:20.847Z,62.97
2022-11-29T07:07:17.917Z,49.63
2022-11-29T07:12:09.902Z,54.47
2022-11-29T07:17:14.334Z,55.07
2022-11-29T07:22:31.042Z,57.60
2022-11-29T07:27:49.624Z,59.63
2022-11-29T07:33:14.547Z,56.03
2022-11-29T07:38:11.953Z,51.83
2022-11-29T07:43:31.558Z,54.73
2022-11-29T07:48:23.279Z,58.93
2022-11-29T07:53:20.106Z,55.03
2022-11-29T07:58:13.031Z,53.20
2022-11-29T08:03:04.884Z,58.60
2022-11-29T08:07:56.708Z,60.60
2022-11-29T08:12:50.738Z,60.13
2022-11-29T08:17:42.292Z,57.73
2022-11-29T08:22:34.039Z,54.80
2022-11-29T08:27:25.910Z,62.73
2022-11-29T08:32:17.690Z,60.27
2022-11-29T08:37:09.302Z,99.53
2022-11-29T08:42:00.837Z,53.87
2022-11-29T08:47:15.338Z,54.83
2022-11-29T08:52:25.721Z,48.53
2022-11-29T08:57:39.053Z,51.27
2022-11-29T09:02:28.949Z,51.27
2022-11-29T09:07:20.607Z,55.53
2022-11-29T09:12:12.375Z,53.17
2022-11-29T09:17:04.111Z,48.73
2022-11-29T09:21:56.302Z,50.43
2022-11-29T09:26:48.392Z,56.73
2022-11-29T09:31:40.224Z,52.37
2022-11-29T09:36:31.892Z,56.40
2022-11-29T09:41:32.832Z,56.57
2022-11-29T09:46:42.590Z,46.37
2022-11-29T09:51:59.221Z,46.93
2022-11-29T09:56:53.161Z,50.27
2022-11-29T10:01:51.443Z,44.97
2022-11-29T10:06:52.059Z,43.17
2022-11-29T10:11:58.271Z,48.17
2022-11-29T10:17:01.068Z,49.93
2022-11-29T10:22:17.722Z,54.10
2022-11-29T10:27:23.105Z,45.73
2022-11-29T10:32:15.813Z,51.20
2022-11-29T10:37:21.141Z,45.63
2022-11-29T10:42:39.626Z,48.70
2022-11-29T10:47:32.087Z,43.93
2022-11-29T10:52:24.173Z,42.47
2022-11-29T10:57:18.706Z,49.57
2022-11-29T11:02:21.110Z,45.37
2022-11-29T11:07:27.919Z,34.07
2022-11-29T11:12:22.783Z,37.70
2022-11-29T11:17:22.261Z,34.97
2022-11-29T11:22:21.847Z,34.13
2022-11-29T11:27:13.424Z,26.90
2022-11-29T11:32:14.578Z,23.93
2022-11-29T11:37:15.338Z,25.10
2022-11-29T11:42:31.615Z,23.93
2022-11-29T11:47:27.248Z,23.13
2022-11-29T11:52:25.742Z,26.67
2022-11-29T11:57:18.975Z,31.53
2022-11-29T12:02:38.844Z,29.40
2022-11-29T12:08:07.182Z,26.33
2022-11-29T12:12:58.222Z,31.97
2022-11-29T12:18:00.174Z,32.33
2022-11-29T12:23:13.465Z,28.23
2022-11-29T12:28:18.586Z,33.30
2022-11-29T12:33:50.676Z,31.97
2022-11-29T12:38:53.555Z,38.37
2022-11-29T12:44:03.950Z,30.77
2022-11-29T12:49:05.280Z,35.23
2022-11-29T12:54:06.094Z,30.13
2022-11-29T12:59:00.391Z,33.53
2022-11-29T13:04:11.494Z,34.87
2022-11-29T13:09:47.422Z,32.67
2022-11-29T13:15:03.439Z,33.33
2022-11-29T13:20:13.564Z,37.53
2022-11-29T13:25:20.589Z,36.07
2022-11-29T13:30:15.733Z,41.93
2022-11-29T13:35:34.095Z,39.73
2022-11-29T13:40:38.140Z,34.57
2022-11-29T13:45:49.874Z,38.03
2022-11-29T13:50:45.776Z,35.70
2022-11-29T13:55:45.089Z,38.43
2022-11-29T14:00:42.533Z,36.50
2022-11-29T14:05:39.259Z,37.97
2022-11-29T14:10:32.429Z,44.10
2022-11-29T14:15:33.310Z,41.77
2022-11-29T14:20:30.406Z,43.30
2022-11-29T14:30:46.984Z,40.83
2022-11-29T14:35:48.661Z,45.07
2022-11-29T14:40:40.117Z,42.67
2022-11-29T14:45:34.041Z,41.67
2022-11-29T14:50:40.509Z,43.83
2022-11-29T14:55:36.444Z,38.33
2022-11-29T15:00:32.592Z,35.73
2022-11-29T15:05:36.895Z,36.83
2022-11-29T15:10:33.556Z,36.43
2022-11-29T15:15:36.561Z,35.83
2022-11-29T15:20:35.077Z,32.60
2022-11-29T15:25:31.843Z,36.03
2022-11-29T15:30:35.244Z,35.03
2022-11-29T15:35:27.561Z,37.53
2022-11-29T15:40:28.873Z,32.60
2022-11-29T15:45:31.104Z,35.77
2022-11-29T15:50:29.294Z,36.67
2022-11-29T15:55:21.689Z,30.97
2022-11-29T16:00:20.224Z,36.83
2022-11-29T16:05:22.694Z,36.63
2022-11-29T16:10:18.563Z,35.30
2022-11-29T16:15:28.444Z,33.80
2022-11-29T16:20:25.508Z,37.20
2022-11-29T16:25:19.270Z,34.80
2022-11-29T16:30:22.447Z,34.87
2022-11-29T16:35:26.451Z,34.17
2022-11-29T16:40:28.470Z,30.00
2022-11-29T16:45:40.990Z,38.27
2022-11-29T16:50:33.223Z,39.83
2022-11-29T16:55:24.836Z,38.57
2022-11-29T17:00:24.439Z,38.33
2022-11-29T17:05:16.003Z,32.40
2022-11-29T17:10:09.322Z,33.57
2022-11-29T17:15:00.801Z,36.53
2022-11-29T17:19:52.868Z,34.00
2022-11-29T17:24:48.065Z,38.27
2022-11-29T17:29:40.013Z,32.00
2022-11-29T17:34:31.637Z,36.33
2022-11-29T17:39:23.217Z,31.10
2022-11-29T17:44:14.881Z,33.97
2022-11-29T17:49:08.693Z,33.20
2022-11-29T17:54:02.801Z,27.97
2022-11-29T17:58:56.968Z,26.30
2022-11-29T18:03:51.719Z,27.20
2022-11-29T18:08:48.563Z,26.43
2022-11-29T18:13:40.756Z,26.30
2022-11-29T18:18:36.025Z,27.40
2022-11-29T18:23:29.363Z,30.40
2022-11-29T18:28:20.897Z,26.13
2022-11-29T18:33:12.461Z,28.03
2022-11-29T18:38:15.195Z,32.43
2022-11-29T18:43:08.581Z,26.60
2022-11-29T18:48:00.085Z,28.37
2022-11-29T18:52:54.104Z,28.83
2022-11-29T18:57:48.829Z,30.23
2022-11-29T19:02:40.787Z,31.50
2022-11-29T19:07:33.676Z,30.03
2022-11-29T19:12:25.622Z,33.27
2022-11-29T19:17:17.773Z,30.70
2022-11-29T19:22:09.370Z,30.57
2022-11-29T19:27:03.065Z,32.03
2022-11-29T19:31:54.863Z,23.00
2022-11-29T19:36:46.461Z,29.50
2022-11-29T19:41:38.161Z,28.50
2022-11-29T19:46:32.631Z,29.07
2022-11-29T19:51:25.485Z,31.80
2022-11-29T19:56:17.475Z,27.63
2022-11-29T20:01:10.658Z,30.20
2022-11-29T20:06:02.643Z,35.23
2022-11-29T20:10:54.608Z,29.57
2022-11-29T20:15:46.668Z,31.50
2022-11-29T20:20:38.405Z,28.53
2022-11-29T20:25:30.601Z,31.40
2022-11-29T20:30:22.477Z,30.87
2022-11-29T20:35:15.878Z,29.23
2022-11-29T20:40:15.807Z,31.07
2022-11-29T20:45:09.489Z,30.67
2022-11-29T20:50:01.214Z,30.27
2022-11-29T20:54:52.745Z,29.60
2022-11-29T20:59:44.764Z,32.37
2022-11-29T21:04:36.515Z,28.70
2022-11-29T21:09:28.615Z,26.47
2022-11-29T21:14:20.489Z,28.83
2022-11-29T21:19:19.655Z,24.80
2022-11-29T21:24:23.250Z,28.43
2022-11-29T21:29:20.138Z,28.30
2022-11-29T21:34:11.959Z,29.80
2022-11-29T21:39:05.820Z,27.57
2022-11-29T21:44:06.529Z,26.93
2022-11-29T21:48:59.429Z,28.43
2022-11-29T21:53:50.918Z,29.07
2022-11-29T21:58:42.613Z,31.27
2022-11-29T22:03:34.589Z,26.70
2022-11-29T22:08:26.111Z,28.93
2022-11-29T22:13:17.686Z,27.50
2022-11-29T22:18:10.299Z,28.67
2022-11-29T22:23:01.790Z,29.73
2022-11-29T22:27:53.455Z,31.80
2022-11-29T22:32:44.961Z,33.47
2022-11-29T22:37:36.901Z,27.23
2022-11-29T22:42:28.410Z,33.77
2022-11-29T22:47:19.992Z,26.70
2022-11-29T22:52:11.568Z,27.37
2022-11-29T22:57:03.183Z,34.77
2022-11-29T23:01:54.792Z,36.43
2022-11-29T23:06:46.878Z,28.60
2022-11-29T23:11:38.630Z,30.70
2022-11-29T23:16:30.880Z,31.37
2022-11-29T23:21:23.842Z,31.17
2022-11-29T23:26:22.087Z,30.93
2022-11-29T23:31:13.776Z,31.27
2022-11-29T23:36:07.880Z,27.23
2022-11-29T23:40:59.614Z,29.73
2022-11-29T23:45:51.175Z,26.10
2022-11-29T23:50:43.529Z,31.70
2022-11-29T23:55:35.138Z,33.73
